Time;durP1;ratioP1;P1;durP2;ratioP2;P2;SDS_P1;SDS_P2;PMS_P1;PMS_P2;Temp;Humidity;BMP_temperature;BMP_pressure;BME280_temperature;BME280_humidity;BME280_pressure;Samples;Min_cycle;Max_cycle;Signal;HPM_P1;HPM_P2
2023/02/13 00:01:25;;;;;;;17.80;10.67;;;8.00;99.90;;;;;;5056313;28;20598;-65
2023/02/13 00:03:50;;;;;;;18.63;8.93;;;8.00;99.90;;;;;;5056848;28;20258;-65
2023/02/13 00:06:16;;;;;;;16.83;7.83;;;8.00;99.90;;;;;;5057066;28;20175;-65
2023/02/13 00:08:41;;;;;;;16.90;8.40;;;7.90;99.90;;;;;;5035037;28;20513;-65
2023/02/13 00:11:07;;;;;;;13.40;8.03;;;7.90;99.90;;;;;;5042153;28;20272;-64
2023/02/13 00:13:34;;;;;;;19.50;10.03;;;7.90;99.90;;;;;;5044682;28;20203;-66
2023/02/13 00:16:01;;;;;;;16.17;9.00;;;7.90;99.90;;;;;;5054431;28;20170;-65
2023/02/13 00:18:27;;;;;;;11.70;7.13;;;7.90;99.90;;;;;;5059171;28;20410;-66
2023/02/13 00:21:12;;;;;;;16.10;8.50;;;7.90;99.90;;;;;;5059077;28;20474;-65
2023/02/13 00:23:39;;;;;;;11.20;7.10;;;7.90;99.90;;;;;;5060020;28;20440;-66
2023/02/13 00:26:08;;;;;;;12.60;6.50;;;7.90;99.90;;;;;;5060655;28;20416;-65
2023/02/13 00:28:34;;;;;;;14.27;5.50;;;7.90;99.90;;;;;;5053537;28;20466;-65
2023/02/13 00:31:08;;;;;;;10.57;5.80;;;7.80;99.90;;;;;;5055141;28;20491;-65
2023/02/13 00:33:34;;;;;;;14.13;5.43;;;7.80;99.90;;;;;;5045264;28;20475;-65
2023/02/13 00:36:12;;;;;;;11.13;5.50;;;7.80;99.90;;;;;;5054148;28;20733;-66
2023/02/13 00:38:39;;;;;;;11.77;4.17;;;7.80;99.90;;;;;;5057636;28;20179;-64
2023/02/13 00:41:05;;;;;;;10.03;5.70;;;7.80;99.90;;;;;;5055101;28;20434;-65
2023/02/13 00:43:31;;;;;;;10.83;4.57;;;7.80;99.90;;;;;;5046144;28;20451;-65
2023/02/13 00:45:57;;;;;;;9.33;5.20;;;7.80;99.90;;;;;;5057223;28;20417;-65
2023/02/13 00:48:24;;;;;;;11.87;5.10;;;7.80;99.90;;;;;;5059021;28;20501;-65
2023/02/13 00:50:52;;;;;;;11.10;5.93;;;7.80;99.90;;;;;;5038002;28;20429;-65
2023/02/13 00:53:19;;;;;;;10.00;4.47;;;7.80;99.90;;;;;;5035112;28;20439;-65
2023/02/13 00:55:45;;;;;;;6.83;3.93;;;7.80;99.90;;;;;;5055161;28;20747;-65
2023/02/13 00:58:10;;;;;;;7.80;4.30;;;7.70;99.90;;;;;;5056624;28;20514;-64
2023/02/13 01:00:37;;;;;;;7.50;5.30;;;7.70;99.90;;;;;;5062983;28;20695;-64
2023/02/13 01:03:02;;;;;;;13.53;4.47;;;7.70;99.90;;;;;;5051875;28;20191;-65
2023/02/13 01:05:29;;;;;;;8.97;4.10;;;7.60;99.90;;;;;;5056801;28;20417;-66
2023/02/13 01:07:54;;;;;;;9.43;4.67;;;7.70;99.90;;;;;;5056855;28;20296;-66
2023/02/13 01:10:20;;;;;;;6.03;2.90;;;7.70;99.90;;;;;;5048846;28;20459;-65
2023/02/13 01:12:46;;;;;;;6.10;3.07;;;7.70;99.90;;;;;;5052243;28;20196;-65
2023/02/13 01:15:11;;;;;;;5.63;3.17;;;7.60;99.90;;;;;;5060034;28;20177;-65
2023/02/13 01:17:40;;;;;;;6.50;3.40;;;7.60;99.90;;;;;;5045418;28;20278;-65
2023/02/13 01:20:11;;;;;;;5.27;2.63;;;7.60;99.90;;;;;;5056729;28;20683;-65
2023/02/13 01:22:36;;;;;;;7.73;3.30;;;7.60;99.90;;;;;;5061752;28;20665;-65
2023/02/13 01:25:02;;;;;;;4.37;2.40;;;7.60;99.90;;;;;;5062596;28;20494;-65
2023/02/13 01:27:28;;;;;;;4.00;2.50;;;7.60;99.90;;;;;;5060950;28;20178;-64
2023/02/13 01:29:54;;;;;;;4.20;2.53;;;7.60;99.90;;;;;;5055733;28;20204;-65
2023/02/13 01:32:20;;;;;;;3.80;2.80;;;7.60;99.90;;;;;;5062811;28;20605;-65
2023/02/13 01:34:46;;;;;;;4.63;2.77;;;7.60;99.90;;;;;;5025890;28;20735;-66
2023/02/13 01:37:12;;;;;;;3.87;2.80;;;7.60;99.90;;;;;;5043400;28;20187;-65
2023/02/13 01:39:37;;;;;;;4.53;2.30;;;7.60;99.90;;;;;;5047279;28;20309;-66
2023/02/13 01:42:04;;;;;;;3.97;2.30;;;7.50;99.90;;;;;;5040597;28;20481;-66
2023/02/13 01:44:53;;;;;;;4.93;2.80;;;7.60;99.90;;;;;;5051561;28;20183;-65
2023/02/13 01:47:40;;;;;;;7.33;3.00;;;7.60;99.90;;;;;;5051882;28;20887;-66
2023/02/13 01:50:20;;;;;;;4.17;3.43;;;7.60;99.90;;;;;;5051051;28;20609;-67
2023/02/13 01:52:50;;;;;;;3.67;2.73;;;7.60;99.90;;;;;;5042287;28;20446;-66
2023/02/13 01:55:16;;;;;;;4.67;3.47;;;7.50;99.90;;;;;;5060666;28;20423;-65
2023/02/13 01:57:47;;;;;;;4.37;2.27;;;7.50;99.90;;;;;;5053081;28;20524;-66
2023/02/13 02:00:15;;;;;;;5.40;2.33;;;7.50;99.90;;;;;;5050142;28;20506;-67
2023/02/13 02:02:45;;;;;;;4.93;2.60;;;7.50;99.90;;;;;;5052851;28;20962;-65
2023/02/13 02:05:11;;;;;;;3.57;2.27;;;7.50;99.90;;;;;;5053474;28;20760;-66
2023/02/13 02:07:39;;;;;;;3.10;2.80;;;7.40;99.90;;;;;;5057645;28;20944;-66
2023/02/13 02:16:48;;;;;;;3.33;2.03;;;7.40;99.90;;;;;;5040338;28;20571;-65
2023/02/13 02:19:37;;;;;;;2.50;2.10;;;7.40;99.90;;;;;;5050284;28;20528;-65
2023/02/13 02:22:44;;;;;;;3.37;2.23;;;7.30;99.90;;;;;;5046854;28;20202;-66
2023/02/13 02:25:43;;;;;;;3.83;2.20;;;7.30;99.90;;;;;;5014011;28;20803;-66
2023/02/13 02:28:30;;;;;;;3.10;2.37;;;7.30;99.90;;;;;;5053058;28;20492;-65
2023/02/13 02:31:20;;;;;;;3.57;2.67;;;7.30;99.90;;;;;;5048907;28;20412;-65
2023/02/13 02:33:56;;;;;;;3.10;2.17;;;7.30;99.90;;;;;;5043682;28;20496;-65
2023/02/13 02:36:22;;;;;;;5.80;2.80;;;7.30;99.90;;;;;;5055528;28;20418;-66
2023/02/13 02:39:17;;;;;;;4.53;3.00;;;7.30;99.90;;;;;;5057771;28;20440;-66
2023/02/13 02:42:18;;;;;;;5.00;3.13;;;7.30;99.90;;;;;;5042255;28;20175;-66
2023/02/13 02:45:01;;;;;;;4.87;3.57;;;7.30;99.90;;;;;;5045070;28;20946;-65
2023/02/13 02:50:39;;;;;;;5.70;3.60;;;7.20;99.90;;;;;;5037361;28;20560;-65
2023/02/13 02:53:28;;;;;;;9.23;4.10;;;7.20;99.90;;;;;;5038666;28;20460;-65
2023/02/13 02:56:16;;;;;;;3.90;3.13;;;7.30;99.90;;;;;;5033475;28;20425;-65
2023/02/13 03:07:30;;;;;;;5.27;4.60;;;7.20;99.90;;;;;;5033765;28;20530;-65
2023/02/13 03:13:22;;;;;;;6.23;4.03;;;7.20;99.90;;;;;;5038351;28;20448;-65
2023/02/13 03:24:57;;;;;;;6.33;3.90;;;7.10;99.90;;;;;;5056277;28;20870;-65
2023/02/13 03:30:27;;;;;;;6.10;4.20;;;7.10;99.90;;;;;;5042110;28;20578;-65
2023/02/13 03:32:59;;;;;;;7.63;4.03;;;7.10;99.90;;;;;;5034133;28;20456;-65
2023/02/13 03:38:33;;;;;;;6.27;4.60;;;7.10;99.90;;;;;;5045133;28;20467;-65
2023/02/13 03:41:19;;;;;;;6.00;4.10;;;7.00;99.90;;;;;;5042349;28;20928;-65
2023/02/13 03:44:09;;;;;;;8.30;4.63;;;7.00;99.90;;;;;;5036492;28;20452;-66
2023/02/13 03:46:40;;;;;;;7.43;4.60;;;7.00;99.90;;;;;;5040963;28;20427;-65
2023/02/13 03:52:09;;;;;;;7.63;5.40;;;7.00;99.90;;;;;;5041237;28;20465;-65
2023/02/13 04:00:20;;;;;;;6.23;5.13;;;7.00;99.90;;;;;;5043657;28;20506;-65
2023/02/13 04:03:24;;;;;;;10.03;5.60;;;7.00;99.90;;;;;;5046477;28;20798;-66
2023/02/13 04:06:00;;;;;;;7.40;4.43;;;7.00;99.90;;;;;;5040175;28;20421;-65
2023/02/13 04:08:25;;;;;;;6.97;5.30;;;7.00;99.90;;;;;;5040202;28;20464;-65
2023/02/13 04:11:03;;;;;;;8.17;5.20;;;7.00;99.90;;;;;;5042989;28;20875;-66
2023/02/13 04:13:35;;;;;;;5.90;4.37;;;7.00;99.90;;;;;;5046650;28;20195;-65
2023/02/13 04:16:10;;;;;;;8.00;5.37;;;7.00;99.90;;;;;;5039115;28;20510;-65
2023/02/13 04:18:37;;;;;;;9.23;5.87;;;7.00;99.90;;;;;;5054047;28;20528;-65
2023/02/13 04:21:05;;;;;;;8.47;6.13;;;7.00;99.90;;;;;;5066567;28;20404;-65
2023/02/13 04:23:31;;;;;;;12.50;7.30;;;7.00;99.90;;;;;;5062669;28;20934;-65
2023/02/13 04:25:59;;;;;;;12.20;5.87;;;7.00;99.90;;;;;;5043320;28;20499;-65
2023/02/13 04:28:24;;;;;;;6.90;5.30;;;7.00;99.90;;;;;;5040511;28;20195;-65
2023/02/13 04:30:50;;;;;;;9.00;6.30;;;7.00;99.90;;;;;;5030484;28;20441;-65
2023/02/13 04:33:16;;;;;;;11.07;7.80;;;7.10;99.90;;;;;;5036149;28;20234;-65
2023/02/13 04:35:41;;;;;;;8.83;6.40;;;7.10;99.90;;;;;;5041029;28;20206;-65
2023/02/13 04:38:07;;;;;;;7.53;6.60;;;7.00;99.90;;;;;;5041411;28;20180;-65
2023/02/13 04:40:32;;;;;;;12.40;7.30;;;7.10;99.90;;;;;;5043532;28;20694;-65
2023/02/13 04:42:59;;;;;;;12.63;7.67;;;7.00;99.90;;;;;;5037054;28;20244;-65
2023/02/13 04:45:24;;;;;;;11.93;7.33;;;7.10;99.90;;;;;;5043531;28;20199;-65
2023/02/13 04:47:52;;;;;;;10.30;7.80;;;7.10;99.90;;;;;;5039066;28;20468;-66
2023/02/13 04:50:18;;;;;;;10.47;6.37;;;7.10;99.90;;;;;;5037720;28;20215;-65
2023/02/13 04:52:43;;;;;;;13.90;6.67;;;7.10;99.90;;;;;;5045825;28;20441;-65
2023/02/13 04:55:09;;;;;;;11.47;7.27;;;7.10;99.90;;;;;;5044406;28;20436;-65
2023/02/13 04:57:35;;;;;;;13.57;7.87;;;7.10;99.90;;;;;;5042804;28;20180;-66
2023/02/13 05:00:01;;;;;;;8.43;6.40;;;7.10;99.90;;;;;;5037238;28;20430;-65
2023/02/13 05:02:26;;;;;;;11.33;6.73;;;7.10;99.90;;;;;;5042574;28;20207;-65
2023/02/13 05:04:52;;;;;;;11.23;7.37;;;7.10;99.90;;;;;;5039164;28;20178;-66
2023/02/13 05:07:17;;;;;;;18.60;9.47;;;7.10;99.90;;;;;;5039203;28;20644;-65
2023/02/13 05:09:43;;;;;;;12.27;8.20;;;7.10;99.90;;;;;;5048836;28;20202;-66
2023/02/13 05:12:08;;;;;;;12.03;8.10;;;7.10;99.90;;;;;;5043899;28;20194;-65
2023/02/13 05:14:34;;;;;;;12.77;8.00;;;7.10;99.90;;;;;;5042798;28;20259;-65
2023/02/13 05:16:59;;;;;;;13.37;7.80;;;7.10;99.90;;;;;;5044230;28;20170;-66
2023/02/13 05:19:25;;;;;;;11.83;7.03;;;7.10;99.90;;;;;;5036639;28;20179;-66
2023/02/13 05:24:35;;;;;;;11.87;6.47;;;7.10;99.90;;;;;;5038234;28;20182;-66
2023/02/13 05:27:00;;;;;;;10.57;6.13;;;7.10;99.90;;;;;;5036560;28;20425;-66
2023/02/13 05:29:26;;;;;;;12.07;7.40;;;7.00;99.90;;;;;;5042070;28;20210;-66
2023/02/13 05:31:54;;;;;;;11.17;7.77;;;7.00;99.90;;;;;;5042405;28;20198;-66
2023/02/13 05:34:21;;;;;;;10.30;6.67;;;7.00;99.90;;;;;;5041443;28;20185;-66
2023/02/13 05:36:47;;;;;;;10.73;6.33;;;7.10;99.90;;;;;;5056170;22;20848;-70
2023/02/13 05:39:14;;;;;;;12.10;7.50;;;7.00;99.90;;;;;;4995602;28;20427;-70
2023/02/13 05:41:40;;;;;;;8.10;6.17;;;7.00;99.90;;;;;;5014573;28;20515;-71
2023/02/13 05:44:06;;;;;;;8.27;5.60;;;7.10;99.90;;;;;;5009254;28;20436;-69
2023/02/13 05:46:32;;;;;;;13.00;7.33;;;7.10;99.90;;;;;;5015254;28;20454;-71
2023/02/13 05:48:57;;;;;;;6.87;5.20;;;7.10;99.90;;;;;;5012223;28;20205;-70
2023/02/13 05:51:23;;;;;;;14.20;7.43;;;7.10;99.90;;;;;;5013147;28;20964;-71
2023/02/13 05:53:48;;;;;;;10.60;6.10;;;7.10;99.90;;;;;;5008949;28;20554;-70
2023/02/13 05:56:14;;;;;;;8.83;5.80;;;7.10;99.90;;;;;;5011083;28;20568;-70
2023/02/13 05:58:40;;;;;;;13.10;6.10;;;7.10;99.90;;;;;;5013932;28;20172;-71
2023/02/13 06:01:06;;;;;;;7.43;4.90;;;7.10;99.90;;;;;;4992130;28;20174;-71
2023/02/13 06:03:32;;;;;;;7.57;4.73;;;7.10;99.90;;;;;;5010667;28;20502;-71
2023/02/13 06:05:58;;;;;;;9.23;5.60;;;7.20;99.90;;;;;;5006825;28;20246;-71
2023/02/13 06:08:25;;;;;;;8.70;6.10;;;7.20;99.90;;;;;;5007422;28;20515;-71
2023/02/13 06:10:51;;;;;;;11.20;6.17;;;7.20;99.90;;;;;;5009763;28;20440;-70
2023/02/13 06:13:17;;;;;;;6.67;5.27;;;7.20;99.90;;;;;;5021792;28;20409;-70
2023/02/13 06:15:43;;;;;;;12.13;5.93;;;7.10;99.90;;;;;;5023697;28;20419;-70
2023/02/13 06:18:09;;;;;;;11.87;6.27;;;7.20;99.90;;;;;;5009044;28;20442;-70
2023/02/13 06:20:35;;;;;;;8.90;5.50;;;7.20;99.90;;;;;;4996081;28;20436;-70
2023/02/13 06:23:01;;;;;;;5.77;4.20;;;7.20;99.90;;;;;;5009300;28;20493;-70
2023/02/13 06:25:26;;;;;;;8.50;4.53;;;7.20;99.90;;;;;;5011036;28;20507;-71
2023/02/13 06:27:53;;;;;;;4.80;4.37;;;7.20;99.90;;;;;;5010427;28;20204;-70
2023/02/13 06:30:19;;;;;;;6.57;4.77;;;7.30;99.90;;;;;;5009687;28;20203;-71
2023/02/13 06:32:47;;;;;;;7.90;4.90;;;7.30;99.90;;;;;;5008358;28;20530;-71
2023/02/13 06:35:14;;;;;;;6.33;4.43;;;7.30;99.90;;;;;;5006439;28;20426;-70
2023/02/13 06:37:42;;;;;;;6.77;4.70;;;7.30;99.90;;;;;;5013086;28;20466;-70
2023/02/13 06:40:09;;;;;;;7.67;5.40;;;7.30;99.90;;;;;;5005343;28;20438;-71
2023/02/13 06:42:35;;;;;;;6.57;4.50;;;7.30;99.90;;;;;;5013923;28;20881;-70
2023/02/13 06:45:01;;;;;;;9.03;5.10;;;7.30;99.90;;;;;;5010756;28;20466;-71
2023/02/13 06:47:26;;;;;;;10.10;5.70;;;7.40;99.90;;;;;;5008969;28;20286;-71
2023/02/13 06:49:52;;;;;;;9.40;6.67;;;7.30;99.90;;;;;;5013015;28;20485;-71
2023/02/13 06:52:18;;;;;;;7.93;4.97;;;7.40;99.90;;;;;;5010891;28;20259;-71
2023/02/13 06:54:44;;;;;;;8.23;5.10;;;7.40;99.90;;;;;;4995817;28;20409;-71
2023/02/13 06:57:09;;;;;;;5.83;4.40;;;7.40;99.90;;;;;;5007932;28;20996;-70
2023/02/13 06:59:35;;;;;;;10.40;5.23;;;7.40;99.90;;;;;;4996850;28;20199;-71
2023/02/13 07:02:00;;;;;;;7.97;5.53;;;7.40;99.90;;;;;;5007467;28;20197;-71
2023/02/13 07:04:26;;;;;;;6.80;5.03;;;7.40;99.90;;;;;;5010398;28;20223;-71
2023/02/13 07:06:56;;;;;;;6.03;4.23;;;7.40;99.90;;;;;;5014342;28;20229;-70
2023/02/13 07:09:23;;;;;;;7.43;5.47;;;7.50;99.90;;;;;;5013190;28;20479;-70
2023/02/13 07:11:49;;;;;;;7.37;5.00;;;7.40;99.90;;;;;;4991173;28;20452;-71
2023/02/13 07:14:15;;;;;;;9.40;5.00;;;7.40;99.90;;;;;;4995566;28;20435;-70
2023/02/13 07:16:40;;;;;;;7.53;5.40;;;7.40;99.90;;;;;;5011678;28;20451;-70
2023/02/13 07:19:06;;;;;;;9.43;6.47;;;7.50;99.90;;;;;;5006771;28;20672;-71
2023/02/13 07:21:32;;;;;;;6.53;4.57;;;7.50;99.90;;;;;;5010598;28;20600;-70
2023/02/13 07:23:57;;;;;;;8.23;6.27;;;7.50;99.90;;;;;;5011314;28;20176;-70
2023/02/13 07:26:23;;;;;;;8.37;5.87;;;7.60;99.90;;;;;;4986934;28;20205;-70
2023/02/13 07:28:49;;;;;;;8.77;4.43;;;7.60;99.90;;;;;;5009152;28;20298;-72
2023/02/13 07:31:15;;;;;;;7.60;4.33;;;7.50;99.90;;;;;;5006470;28;20507;-70
2023/02/13 07:33:40;;;;;;;8.20;5.10;;;7.40;99.90;;;;;;5007639;28;20182;-70
2023/02/13 07:36:06;;;;;;;10.50;6.47;;;7.40;99.90;;;;;;5006930;28;20179;-70
2023/02/13 07:38:32;;;;;;;8.33;5.97;;;7.50;99.90;;;;;;5010292;28;20172;-71
2023/02/13 07:41:01;;;;;;;7.83;5.90;;;7.50;99.90;;;;;;5016397;28;20428;-71
2023/02/13 07:43:28;;;;;;;8.17;5.80;;;7.50;99.90;;;;;;5014401;28;20594;-71
2023/02/13 07:45:57;;;;;;;8.27;6.60;;;7.60;99.90;;;;;;5014622;28;20464;-71
2023/02/13 07:48:26;;;;;;;5.73;4.70;;;7.60;99.90;;;;;;4996344;28;20527;-71
2023/02/13 07:50:52;;;;;;;5.90;4.53;;;7.60;99.90;;;;;;5010280;28;20530;-72
2023/02/13 07:53:18;;;;;;;7.10;5.53;;;7.50;99.90;;;;;;4993663;28;20463;-70
2023/02/13 07:55:44;;;;;;;8.40;5.17;;;7.50;99.90;;;;;;5015616;28;20485;-72
2023/02/13 07:58:09;;;;;;;7.33;5.20;;;7.50;99.90;;;;;;5016761;28;20671;-70
2023/02/13 08:00:35;;;;;;;7.83;5.80;;;7.50;99.90;;;;;;4987294;28;20265;-71
2023/02/13 08:03:01;;;;;;;8.77;5.67;;;7.50;99.90;;;;;;4990707;28;20176;-71
2023/02/13 08:05:28;;;;;;;7.10;5.20;;;7.60;99.90;;;;;;5013192;28;20177;-71
2023/02/13 08:07:53;;;;;;;6.40;5.10;;;7.70;99.90;;;;;;5015045;28;20196;-71
2023/02/13 08:13:05;;;;;;;6.73;5.33;;;7.70;99.90;;;;;;5018059;28;20211;-71
2023/02/13 08:15:31;;;;;;;10.27;5.43;;;7.60;99.90;;;;;;5013417;28;20404;-70
2023/02/13 08:17:56;;;;;;;6.87;5.90;;;7.70;99.90;;;;;;5024450;28;20465;-71
2023/02/13 08:20:22;;;;;;;7.10;5.40;;;7.80;99.90;;;;;;5013295;28;20192;-70
2023/02/13 08:22:48;;;;;;;7.70;5.20;;;7.80;99.90;;;;;;5009502;28;20256;-70
2023/02/13 08:25:14;;;;;;;8.90;5.20;;;7.70;99.90;;;;;;5009038;28;20447;-70
2023/02/13 08:27:40;;;;;;;9.40;5.47;;;7.70;99.90;;;;;;5002918;28;20492;-70
2023/02/13 08:30:07;;;;;;;8.03;5.77;;;7.70;99.90;;;;;;5006252;28;20460;-69
2023/02/13 08:32:33;;;;;;;8.60;6.10;;;7.90;99.90;;;;;;5006753;28;20191;-70
2023/02/13 08:34:59;;;;;;;7.63;5.60;;;7.80;99.90;;;;;;4995015;28;20435;-71
2023/02/13 08:37:24;;;;;;;8.97;6.37;;;7.90;99.90;;;;;;5010497;28;20208;-72
2023/02/13 08:39:50;;;;;;;7.97;6.87;;;8.00;99.90;;;;;;5011239;28;20674;-71
2023/02/13 08:42:16;;;;;;;7.83;5.70;;;7.90;99.90;;;;;;4996167;28;20644;-70
2023/02/13 08:44:42;;;;;;;6.10;5.33;;;8.00;99.90;;;;;;4997726;28;20204;-70
2023/02/13 08:47:08;;;;;;;7.17;5.37;;;8.10;99.90;;;;;;5012384;28;20209;-70
2023/02/13 08:49:34;;;;;;;9.13;6.00;;;8.20;99.90;;;;;;5013092;28;21168;-70
2023/02/13 08:52:01;;;;;;;13.33;4.93;;;8.10;99.90;;;;;;5014306;28;22319;-71
2023/02/13 08:54:27;;;;;;;7.30;4.80;;;8.20;99.90;;;;;;5017434;28;20183;-71
2023/02/13 08:56:53;;;;;;;7.20;5.63;;;7.90;99.90;;;;;;5011020;28;20473;-70
2023/02/13 08:59:19;;;;;;;7.23;5.83;;;8.00;99.90;;;;;;5012334;28;20495;-70
2023/02/13 09:01:45;;;;;;;10.23;6.00;;;8.10;99.90;;;;;;5017620;28;20445;-69
2023/02/13 09:04:10;;;;;;;7.60;5.40;;;8.10;99.90;;;;;;5010548;28;20196;-70
2023/02/13 09:06:36;;;;;;;8.43;5.60;;;8.00;99.90;;;;;;5006825;28;20461;-69
2023/02/13 09:09:04;;;;;;;8.83;5.60;;;8.20;99.90;;;;;;5011961;28;20206;-69
2023/02/13 09:11:29;;;;;;;10.70;5.93;;;8.10;99.90;;;;;;5012243;28;20619;-69
2023/02/13 09:13:55;;;;;;;10.17;6.00;;;8.00;99.90;;;;;;5018552;28;20419;-69
2023/02/13 09:16:21;;;;;;;7.80;5.70;;;8.00;99.90;;;;;;5013767;28;20262;-69
2023/02/13 09:18:48;;;;;;;9.77;6.53;;;8.00;99.90;;;;;;5017073;28;20182;-69
2023/02/13 09:21:15;;;;;;;9.37;5.77;;;7.90;99.90;;;;;;5012555;28;20985;-69
2023/02/13 09:23:40;;;;;;;10.57;6.17;;;8.00;99.90;;;;;;5019284;28;20424;-69
2023/02/13 09:26:09;;;;;;;8.30;5.83;;;8.10;99.90;;;;;;5021589;28;20410;-70
2023/02/13 09:28:35;;;;;;;8.27;5.63;;;8.10;99.90;;;;;;5020196;28;20569;-69
2023/02/13 09:31:16;;;;;;;7.43;4.60;;;8.10;99.90;;;;;;5025020;28;20420;-69
2023/02/13 09:33:43;;;;;;;7.10;5.03;;;8.00;99.90;;;;;;5031659;28;20412;-70
2023/02/13 09:36:13;;;;;;;12.63;5.73;;;7.90;99.90;;;;;;5030301;28;20417;-70
2023/02/13 09:38:42;;;;;;;13.37;7.00;;;7.80;99.90;;;;;;5035127;28;20439;-69
2023/02/13 09:41:17;;;;;;;10.57;6.40;;;7.70;99.90;;;;;;5023428;28;20929;-69
2023/02/13 09:43:54;;;;;;;9.20;5.50;;;7.60;99.90;;;;;;5009999;28;20421;-69
2023/02/13 09:46:39;;;;;;;10.27;7.00;;;7.60;99.90;;;;;;5021646;28;20433;-69
2023/02/13 09:49:29;;;;;;;7.60;4.80;;;7.60;99.90;;;;;;5018889;28;20457;-69
2023/02/13 09:51:56;;;;;;;11.00;7.10;;;7.60;99.90;;;;;;5022004;28;20994;-69
2023/02/13 09:54:21;;;;;;;11.17;6.50;;;7.70;99.90;;;;;;5028863;28;20415;-70
2023/02/13 09:57:15;;;;;;;8.27;5.87;;;7.80;99.90;;;;;;5012770;28;20432;-69
2023/02/13 09:59:47;;;;;;;6.73;4.90;;;7.70;99.90;;;;;;5008083;28;20189;-69
2023/02/13 10:02:49;;;;;;;8.60;6.00;;;7.60;99.90;;;;;;5016060;28;20419;-69
2023/02/13 10:05:45;;;;;;;6.60;5.00;;;7.50;99.90;;;;;;5001818;28;20905;-67
2023/02/13 10:08:25;;;;;;;8.80;5.93;;;7.50;99.90;;;;;;4993705;28;20459;-69
2023/02/13 10:11:06;;;;;;;9.83;6.20;;;7.50;99.90;;;;;;4996808;28;20506;-68
2023/02/13 10:14:08;;;;;;;10.03;5.93;;;7.50;99.90;;;;;;5025890;28;20414;-68
2023/02/13 10:16:33;;;;;;;13.23;7.23;;;7.60;99.90;;;;;;5023583;28;20432;-68
2023/02/13 10:19:05;;;;;;;9.77;6.60;;;7.60;99.90;;;;;;5025053;28;20855;-68
2023/02/13 10:21:37;;;;;;;10.30;6.70;;;7.50;99.90;;;;;;5022550;28;20264;-70
2023/02/13 10:24:17;;;;;;;11.87;5.70;;;7.40;99.90;;;;;;5020803;28;20423;-69
2023/02/13 10:26:45;;;;;;;14.20;6.93;;;7.50;99.90;;;;;;5031302;28;20675;-68
2023/02/13 10:32:13;;;;;;;13.10;7.83;;;7.60;99.90;;;;;;5013148;28;20423;-68
2023/02/13 10:34:44;;;;;;;14.90;7.10;;;7.70;99.90;;;;;;5005342;28;20423;-68
2023/02/13 10:37:17;;;;;;;11.53;6.60;;;7.80;99.90;;;;;;5026824;28;20447;-69
2023/02/13 10:39:46;;;;;;;12.77;8.00;;;7.80;99.90;;;;;;5026014;28;20903;-69
2023/02/13 10:42:36;;;;;;;10.00;6.03;;;7.70;99.90;;;;;;5025680;28;20424;-70
2023/02/13 10:45:17;;;;;;;12.57;7.17;;;7.80;99.90;;;;;;5027242;28;20441;-69
2023/02/13 10:48:03;;;;;;;12.97;6.87;;;7.70;99.90;;;;;;5036982;28;20426;-69
2023/02/13 10:50:33;;;;;;;10.50;6.30;;;7.90;99.90;;;;;;5027408;28;20479;-69
2023/02/13 10:53:14;;;;;;;10.87;6.73;;;8.10;99.90;;;;;;5025704;28;20761;-70
2023/02/13 10:55:48;;;;;;;7.97;6.27;;;8.20;99.90;;;;;;5022959;28;20427;-70
2023/02/13 10:58:34;;;;;;;11.10;6.90;;;8.30;99.90;;;;;;5024747;28;20414;-70
2023/02/13 11:01:13;;;;;;;11.17;6.87;;;8.30;99.90;;;;;;5012821;28;20412;-70
2023/02/13 11:03:39;;;;;;;9.00;6.93;;;8.20;99.90;;;;;;5021108;28;20448;-70
2023/02/13 11:06:11;;;;;;;12.37;7.43;;;8.30;99.90;;;;;;5029631;28;20407;-70
2023/02/13 11:08:43;;;;;;;13.20;7.20;;;8.20;99.90;;;;;;5026353;28;20180;-70
2023/02/13 11:11:29;;;;;;;9.40;6.27;;;8.30;99.90;;;;;;5026046;28;21040;-69
2023/02/13 11:14:15;;;;;;;10.73;8.07;;;8.20;99.90;;;;;;5015511;28;20441;-69
2023/02/13 11:17:16;;;;;;;9.50;6.43;;;8.10;99.90;;;;;;5024614;28;20434;-69
2023/02/13 11:19:52;;;;;;;11.57;7.17;;;8.10;99.90;;;;;;5002107;28;20607;-69
2023/02/13 11:22:38;;;;;;;9.43;7.13;;;8.10;99.90;;;;;;5013200;28;20415;-68
2023/02/13 11:25:25;;;;;;;10.63;7.40;;;8.10;99.90;;;;;;5014703;28;20784;-68
2023/02/13 11:28:09;;;;;;;13.80;9.23;;;8.10;99.90;;;;;;5023710;28;20497;-70
2023/02/13 11:30:36;;;;;;;14.20;9.00;;;8.00;99.90;;;;;;5024041;28;20447;-69
2023/02/13 11:33:17;;;;;;;12.23;8.30;;;8.20;99.90;;;;;;5019032;28;20447;-69
2023/02/13 11:35:45;;;;;;;15.40;7.73;;;8.20;99.90;;;;;;5024195;28;20435;-69
2023/02/13 11:40:39;;;;;;;15.40;8.47;;;8.30;99.90;;;;;;5008220;28;20476;-67
2023/02/13 11:43:06;;;;;;;10.80;7.70;;;8.20;99.90;;;;;;5017654;28;20417;-66
2023/02/13 11:45:32;;;;;;;12.13;7.80;;;8.20;99.90;;;;;;5019215;28;20400;-67
2023/02/13 11:47:57;;;;;;;12.93;7.97;;;8.30;99.90;;;;;;5021721;28;20941;-67
2023/02/13 11:50:36;;;;;;;11.47;8.47;;;8.20;99.90;;;;;;5021845;28;20551;-66
2023/02/13 11:53:05;;;;;;;16.80;9.23;;;8.40;99.90;;;;;;5014750;28;20197;-66
2023/02/13 11:55:41;;;;;;;10.93;7.50;;;8.40;99.90;;;;;;5020556;28;20956;-66
2023/02/13 11:58:09;;;;;;;13.27;8.10;;;8.40;99.90;;;;;;5016860;28;20428;-66
2023/02/13 12:00:38;;;;;;;14.30;8.47;;;8.10;99.90;;;;;;5022044;28;20439;-65
2023/02/13 12:03:24;;;;;;;14.57;9.13;;;8.30;99.90;;;;;;5016877;28;20416;-66
2023/02/13 12:06:12;;;;;;;13.13;8.33;;;8.30;99.90;;;;;;4987710;28;20553;-66
2023/02/13 12:08:40;;;;;;;15.10;9.37;;;8.40;99.90;;;;;;5016939;28;20481;-66
2023/02/13 12:11:32;;;;;;;13.70;9.57;;;8.40;99.90;;;;;;5016734;28;20485;-66
2023/02/13 12:13:59;;;;;;;17.90;10.27;;;8.50;99.90;;;;;;5011330;28;20428;-66
2023/02/13 12:16:37;;;;;;;12.83;8.97;;;8.40;99.90;;;;;;5019436;28;20560;-67
2023/02/13 12:19:09;;;;;;;14.70;9.80;;;8.30;99.90;;;;;;5021891;28;20493;-67
2023/02/13 12:21:47;;;;;;;16.17;10.63;;;8.50;99.90;;;;;;5014720;28;20409;-67
2023/02/13 12:24:47;;;;;;;13.63;9.50;;;8.40;99.90;;;;;;5016053;28;20405;-67
2023/02/13 12:27:58;;;;;;;14.00;9.07;;;8.30;99.90;;;;;;5019513;28;20507;-67
2023/02/13 12:30:32;;;;;;;17.43;11.53;;;8.40;99.90;;;;;;4989745;28;20508;-67
2023/02/13 12:33:28;;;;;;;13.83;9.27;;;8.50;99.90;;;;;;5013769;28;20421;-66
2023/02/13 12:36:05;;;;;;;15.07;10.03;;;8.60;99.90;;;;;;5001484;28;20964;-65
2023/02/13 12:39:08;;;;;;;14.47;8.83;;;8.40;99.90;;;;;;5022340;28;20421;-67
2023/02/13 12:41:57;;;;;;;19.23;9.90;;;8.60;99.90;;;;;;5022691;28;20441;-66
2023/02/13 12:44:40;;;;;;;21.17;8.77;;;8.60;99.90;;;;;;5027498;28;20399;-65
2023/02/13 12:47:27;;;;;;;17.57;8.90;;;8.40;99.90;;;;;;5018648;28;20421;-66
2023/02/13 12:50:33;;;;;;;18.70;9.77;;;8.50;99.90;;;;;;5017149;28;20443;-66
2023/02/13 12:53:31;;;;;;;12.27;8.07;;;8.50;99.90;;;;;;4965810;28;20434;-66
2023/02/13 12:56:33;;;;;;;14.13;9.13;;;8.30;99.90;;;;;;5019432;28;20452;-66
2023/02/13 12:59:13;;;;;;;16.70;8.70;;;8.40;99.90;;;;;;4942587;28;20418;-66
2023/02/13 13:02:02;;;;;;;13.67;9.10;;;8.40;99.90;;;;;;5017252;28;21042;-66
2023/02/13 13:04:53;;;;;;;12.67;8.90;;;8.40;99.90;;;;;;5000627;28;20426;-66
2023/02/13 13:07:27;;;;;;;14.50;8.70;;;8.20;99.90;;;;;;5021881;28;20431;-66
2023/02/13 13:10:18;;;;;;;12.87;8.20;;;8.10;99.90;;;;;;5019931;28;20510;-65
2023/02/13 13:13:09;;;;;;;15.03;11.00;;;8.10;99.90;;;;;;5015742;28;20438;-66
2023/02/13 13:15:46;;;;;;;14.73;10.20;;;8.00;99.90;;;;;;5021912;28;20911;-66
2023/02/13 13:18:28;;;;;;;16.33;9.87;;;8.10;99.90;;;;;;5021339;28;20414;-66
2023/02/13 13:21:24;;;;;;;19.43;10.77;;;8.20;99.90;;;;;;5015560;28;20401;-66
2023/02/13 13:24:02;;;;;;;16.90;11.20;;;8.20;99.90;;;;;;5007801;28;20405;-65
2023/02/13 13:26:42;;;;;;;17.40;11.03;;;8.30;99.90;;;;;;5021073;28;20414;-66
2023/02/13 13:29:28;;;;;;;17.50;9.93;;;8.20;99.90;;;;;;5017493;28;20527;-66
2023/02/13 13:32:03;;;;;;;21.10;9.80;;;8.30;99.90;;;;;;5013281;28;20553;-64
2023/02/13 13:34:30;;;;;;;13.70;8.57;;;8.20;99.90;;;;;;5015224;28;20405;-65
2023/02/13 13:37:10;;;;;;;14.80;9.80;;;8.10;99.90;;;;;;5023230;28;20419;-66
2023/02/13 13:40:03;;;;;;;16.97;10.03;;;8.20;99.90;;;;;;5013976;28;20490;-66
2023/02/13 13:42:34;;;;;;;16.17;10.83;;;8.20;99.90;;;;;;4998225;28;20458;-66
2023/02/13 13:45:19;;;;;;;16.60;10.53;;;8.30;99.90;;;;;;5022019;28;20401;-66
2023/02/13 13:47:57;;;;;;;14.47;9.73;;;8.30;99.90;;;;;;5021968;28;20430;-65
2023/02/13 13:50:26;;;;;;;18.80;10.80;;;8.40;99.90;;;;;;5014879;28;20536;-66
2023/02/13 13:53:10;;;;;;;19.60;9.60;;;8.30;99.90;;;;;;5010938;28;20738;-66
2023/02/13 13:55:57;;;;;;;17.80;10.60;;;8.30;99.90;;;;;;5020930;28;20515;-68
2023/02/13 13:58:33;;;;;;;18.30;9.43;;;8.40;99.90;;;;;;5022505;28;20436;-66
2023/02/13 14:01:14;;;;;;;16.50;10.20;;;8.40;99.90;;;;;;5020850;28;20416;-66
2023/02/13 14:03:44;;;;;;;16.53;9.57;;;8.40;99.90;;;;;;5010867;28;20431;-66
2023/02/13 14:06:40;;;;;;;15.43;10.00;;;8.30;99.90;;;;;;5019249;28;20494;-66
2023/02/13 14:09:26;;;;;;;15.63;9.83;;;8.20;99.90;;;;;;4990122;28;20484;-66
2023/02/13 14:11:53;;;;;;;15.97;9.03;;;8.20;99.90;;;;;;5002314;28;20422;-66
2023/02/13 14:14:28;;;;;;;16.27;9.30;;;8.20;99.90;;;;;;5016212;28;20458;-66